createdAt,value
2019-04-11T00:00:52.098Z,3.33
2019-04-11T00:03:21.657Z,3.70
2019-04-11T00:05:50.786Z,3.23
2019-04-11T00:08:19.697Z,2.83
2019-04-11T00:10:49.182Z,2.80
2019-04-11T00:13:23.827Z,2.50
2019-04-11T00:15:48.980Z,2.57
2019-04-11T00:18:18.649Z,2.60
2019-04-11T00:20:48.433Z,2.37
2019-04-11T00:23:18.107Z,2.63
2019-04-11T00:25:47.490Z,2.43
2019-04-11T00:28:17.316Z,2.97
2019-04-11T00:30:46.202Z,2.70
2019-04-11T00:33:15.933Z,2.40
2019-04-11T00:35:45.945Z,2.50
2019-04-11T00:38:15.907Z,2.60
2019-04-11T00:40:45.808Z,2.80
2019-04-11T00:43:22.219Z,3.30
2019-04-11T00:45:45.626Z,2.67
2019-04-11T00:48:14.439Z,2.63
2019-04-11T00:50:43.370Z,2.73
2019-04-11T00:53:14.432Z,3.00
2019-04-11T00:55:43.901Z,2.70
2019-04-11T00:58:13.562Z,3.27
2019-04-11T01:00:42.977Z,3.03
2019-04-11T01:03:11.802Z,3.07
2019-04-11T01:05:41.431Z,2.90
2019-04-11T01:08:11.374Z,3.20
2019-04-11T01:10:41.433Z,3.07
2019-04-11T01:13:11.189Z,4.20
2019-04-11T01:15:42.730Z,2.97
2019-04-11T01:18:11.911Z,3.33
2019-04-11T01:20:41.808Z,2.53
2019-04-11T01:23:11.021Z,2.83
2019-04-11T01:25:42.962Z,3.03
2019-04-11T01:28:12.194Z,2.80
2019-04-11T01:30:57.622Z,3.30
2019-04-11T01:33:27.446Z,2.43
2019-04-11T01:35:57.231Z,3.03
2019-04-11T01:38:26.462Z,3.10
2019-04-11T01:40:56.154Z,2.23
2019-04-11T01:43:26.092Z,2.50
2019-04-11T01:45:55.917Z,2.60
2019-04-11T01:48:41.679Z,2.43
2019-04-11T01:51:11.564Z,2.27
2019-04-11T01:53:41.003Z,2.17
2019-04-11T01:56:10.778Z,2.40
2019-04-11T01:58:40.531Z,1.80
2019-04-11T02:01:29.227Z,2.10
2019-04-11T02:04:20.025Z,2.40
2019-04-11T02:06:49.899Z,1.53
2019-04-11T02:09:19.885Z,2.00
2019-04-11T02:11:49.864Z,2.00
2019-04-11T02:14:20.956Z,2.20
2019-04-11T02:16:49.609Z,1.77
2019-04-11T02:19:20.376Z,2.10
2019-04-11T02:21:51.650Z,1.97
2019-04-11T02:24:38.075Z,1.87
2019-04-11T02:27:19.091Z,2.00
2019-04-11T02:29:48.866Z,1.47
2019-04-11T02:32:22.556Z,1.83
2019-04-11T02:34:50.733Z,1.90
2019-04-11T02:37:21.939Z,2.10
2019-04-11T02:39:51.603Z,1.60
2019-04-11T02:42:21.413Z,1.87
2019-04-11T02:45:03.299Z,1.93
2019-04-11T02:47:25.325Z,2.10
2019-04-11T02:49:51.923Z,2.13
2019-04-11T02:52:20.704Z,1.77
2019-04-11T02:54:49.458Z,1.73
2019-04-11T02:57:18.402Z,1.83
2019-04-11T02:59:48.894Z,1.80
2019-04-11T03:02:19.452Z,1.83
2019-04-11T03:04:48.319Z,1.70
2019-04-11T03:07:17.148Z,1.60
2019-04-11T03:09:48.583Z,1.87
2019-04-11T03:12:16.376Z,1.63
2019-04-11T03:15:04.455Z,1.57
2019-04-11T03:17:21.429Z,1.70
2019-04-11T03:20:02.831Z,1.77
2019-04-11T03:22:18.357Z,1.93
2019-04-11T03:24:48.984Z,1.87
2019-04-11T03:27:22.530Z,2.00
2019-04-11T03:29:51.730Z,1.63
2019-04-11T03:33:40.209Z,2.03
2019-04-11T03:35:41.170Z,1.70
2019-04-11T03:37:47.824Z,1.90
2019-04-11T03:40:15.151Z,1.80
2019-04-11T03:42:41.703Z,2.20
2019-04-11T03:45:15.262Z,1.50
2019-04-11T03:47:37.599Z,2.00
2019-04-11T03:50:03.818Z,1.93
2019-04-11T03:52:30.618Z,1.73
2019-04-11T03:55:00.454Z,1.90
2019-04-11T03:57:30.006Z,1.50
2019-04-11T04:00:00.902Z,1.80
2019-04-11T04:02:30.763Z,1.97
2019-04-11T04:05:01.224Z,2.67
2019-04-11T04:07:31.818Z,2.13
2019-04-11T04:10:02.743Z,2.37
2019-04-11T04:12:31.473Z,2.30
2019-04-11T04:15:36.159Z,2.00
2019-04-11T04:18:08.568Z,1.97
2019-04-11T04:21:01.827Z,1.87
2019-04-11T04:23:35.776Z,2.20
2019-04-11T04:26:07.647Z,1.97
2019-04-11T04:28:38.686Z,1.93
2019-04-11T04:31:09.691Z,1.90
2019-04-11T04:33:40.071Z,2.37
2019-04-11T04:36:11.047Z,2.03
2019-04-11T04:38:41.470Z,2.53
2019-04-11T04:41:22.387Z,2.20
2019-04-11T04:43:44.170Z,2.63
2019-04-11T04:46:33.002Z,2.40
2019-04-11T04:48:44.738Z,2.03
2019-04-11T04:51:15.533Z,2.20
2019-04-11T04:53:45.220Z,2.53
2019-04-11T04:56:21.968Z,2.57
2019-04-11T04:58:47.075Z,3.30
2019-04-11T05:01:17.180Z,2.93
2019-04-11T05:03:48.640Z,2.70
2019-04-11T05:06:18.637Z,2.57
2019-04-11T05:08:51.394Z,2.73
2019-04-11T05:11:20.228Z,2.40
2019-04-11T05:13:51.371Z,2.80
2019-04-11T05:16:19.545Z,2.93
2019-04-11T05:18:48.496Z,2.77
2019-04-11T05:21:17.225Z,3.00
2019-04-11T05:23:46.035Z,2.53
2019-04-11T05:26:15.216Z,2.30
2019-04-11T05:28:43.964Z,2.40
2019-04-11T05:31:14.361Z,3.10
2019-04-11T05:33:43.485Z,2.87
2019-04-11T05:36:12.349Z,2.90
2019-04-11T05:38:42.135Z,2.67
2019-04-11T05:41:12.397Z,3.10
2019-04-11T05:43:41.810Z,3.23
2019-04-11T05:46:30.182Z,2.37
2019-04-11T05:48:55.130Z,3.13
2019-04-11T05:51:23.855Z,2.43
2019-04-11T05:53:55.900Z,2.20
2019-04-11T05:56:30.148Z,2.37
2019-04-11T05:59:05.346Z,2.50
2019-04-11T06:01:38.561Z,2.70
2019-04-11T06:04:18.305Z,2.60
2019-04-11T06:06:55.773Z,2.50
2019-04-11T06:09:31.297Z,3.00
2019-04-11T06:12:07.445Z,2.23
2019-04-11T06:14:44.176Z,2.83
2019-04-11T06:17:15.884Z,2.50
2019-04-11T06:20:04.068Z,2.40
2019-04-11T06:22:33.901Z,2.80
2019-04-11T06:25:21.477Z,3.10
2019-04-11T06:28:04.120Z,3.30
2019-04-11T06:30:58.976Z,3.20
2019-04-11T06:33:36.491Z,3.40
2019-04-11T06:36:33.516Z,4.07
2019-04-11T06:39:39.983Z,4.73
2019-04-11T06:42:19.229Z,4.10
2019-04-11T06:45:09.212Z,3.90
2019-04-11T06:47:56.953Z,4.13
2019-04-11T06:50:43.893Z,3.47
2019-04-11T06:53:15.261Z,4.03
2019-04-11T06:56:12.504Z,3.73
2019-04-11T06:58:45.764Z,4.00
2019-04-11T07:01:18.211Z,4.10
2019-04-11T07:03:57.406Z,3.57
2019-04-11T07:06:29.382Z,3.73
2019-04-11T07:09:20.102Z,3.63
2019-04-11T07:11:54.895Z,3.47
2019-04-11T07:14:43.343Z,3.40
2019-04-11T07:17:29.871Z,3.53
2019-04-11T07:20:24.931Z,3.93
2019-04-11T07:23:11.447Z,3.63
2019-04-11T07:25:51.670Z,3.60
2019-04-11T07:28:39.361Z,4.17
2019-04-11T07:31:30.152Z,3.33
2019-04-11T07:34:31.300Z,3.90
2019-04-11T07:37:15.146Z,3.40
2019-04-11T07:40:07.419Z,3.40
2019-04-11T07:42:43.473Z,3.57
2019-04-11T07:45:17.386Z,4.03
2019-04-11T07:47:52.580Z,3.57
2019-04-11T07:50:23.095Z,3.03
2019-04-11T07:52:56.090Z,3.60
2019-04-11T07:55:25.843Z,3.70
2019-04-11T07:58:13.677Z,3.43
2019-04-11T08:01:02.006Z,3.60
2019-04-11T08:03:46.982Z,3.60
2019-04-11T08:06:56.290Z,3.20
2019-04-11T08:09:48.312Z,3.30
2019-04-11T08:12:23.557Z,3.10
2019-04-11T08:15:11.413Z,2.77
2019-04-11T08:17:42.995Z,2.33
2019-04-11T08:20:33.291Z,2.07
2019-04-11T08:23:09.712Z,2.63
2019-04-11T08:25:55.814Z,1.90
2019-04-11T08:28:24.870Z,2.13
2019-04-11T08:31:19.366Z,2.50
2019-04-11T08:33:48.907Z,2.47
2019-04-11T08:36:51.763Z,2.10
2019-04-11T08:39:24.833Z,2.40
2019-04-11T08:42:07.620Z,1.90
2019-04-11T08:44:39.672Z,1.90
2019-04-11T08:47:13.686Z,1.40
2019-04-11T08:49:44.440Z,1.67
2019-04-11T08:52:42.350Z,1.60
2019-04-11T08:55:23.305Z,1.80
2019-04-11T08:58:00.319Z,1.40
2019-04-11T09:00:42.311Z,1.50
2019-04-11T09:03:25.984Z,1.70
2019-04-11T09:06:06.301Z,1.57
2019-04-11T09:08:54.461Z,1.50
2019-04-11T09:11:28.798Z,1.67
2019-04-11T09:14:22.508Z,1.30
2019-04-11T09:17:04.519Z,1.47
2019-04-11T09:20:01.272Z,1.40
2019-04-11T09:22:45.246Z,1.60
2019-04-11T09:25:41.981Z,1.93
2019-04-11T09:28:39.802Z,1.73
2019-04-11T09:31:21.555Z,1.83
2019-04-11T09:34:13.228Z,1.83
2019-04-11T09:36:57.550Z,2.30
2019-04-11T09:39:48.371Z,1.70
2019-04-11T09:42:36.593Z,1.63
2019-04-11T09:45:24.210Z,1.73
2019-04-11T09:48:14.915Z,2.03
2019-04-11T09:51:03.023Z,1.57
2019-04-11T09:53:34.541Z,1.80
2019-04-11T09:56:21.090Z,1.67
2019-04-11T09:58:51.805Z,1.70
2019-04-11T10:01:58.248Z,1.47
2019-04-11T10:04:28.232Z,1.30
2019-04-11T10:07:09.434Z,1.77
2019-04-11T10:10:00.214Z,1.23
2019-04-11T10:12:46.588Z,1.67
2019-04-11T10:15:15.713Z,1.23
2019-04-11T10:18:03.155Z,1.70
2019-04-11T10:20:32.874Z,1.13
2019-04-11T10:23:22.962Z,1.50
2019-04-11T10:25:56.492Z,1.47
2019-04-11T10:28:44.327Z,1.00
2019-04-11T10:31:15.355Z,1.20
2019-04-11T10:34:09.277Z,1.27
2019-04-11T10:36:43.144Z,1.40
2019-04-11T10:39:33.334Z,1.60
2019-04-11T10:42:08.524Z,1.50
2019-04-11T10:45:00.750Z,1.60
2019-04-11T10:47:31.218Z,1.57
2019-04-11T10:50:19.564Z,1.40
2019-04-11T10:52:51.507Z,1.20
2019-04-11T10:55:37.863Z,1.60
2019-04-11T10:58:13.577Z,1.37
2019-04-11T11:00:55.691Z,1.30
2019-04-11T11:03:27.837Z,1.73
2019-04-11T11:05:59.693Z,1.53
2019-04-11T11:08:33.335Z,1.37
2019-04-11T11:11:11.189Z,1.47
2019-04-11T11:14:08.736Z,1.67
2019-04-11T11:16:47.018Z,1.57
2019-04-11T11:19:45.732Z,1.57
2019-04-11T11:22:23.821Z,1.70
2019-04-11T11:25:12.686Z,1.50
2019-04-11T11:27:41.618Z,1.50
2019-04-11T11:30:47.996Z,1.60
2019-04-11T11:33:18.289Z,1.90
2019-04-11T11:36:02.684Z,1.57
2019-04-11T11:38:31.427Z,1.40
2019-04-11T11:41:18.472Z,1.40
2019-04-11T11:43:48.714Z,1.63
2019-04-11T11:46:39.045Z,1.40
2019-04-11T11:49:14.277Z,1.20
2019-04-11T11:51:59.286Z,1.20
2019-04-11T11:54:33.143Z,1.80
2019-04-11T11:57:08.734Z,1.70
2019-04-11T11:59:59.359Z,1.63
2019-04-11T12:02:32.711Z,1.40
2019-04-11T12:05:12.947Z,1.20
2019-04-11T12:07:54.527Z,1.70
2019-04-11T12:10:51.551Z,1.40
2019-04-11T12:13:40.661Z,1.33
2019-04-11T12:16:27.875Z,1.60
2019-04-11T12:19:10.914Z,1.40
2019-04-11T12:21:40.862Z,1.40
2019-04-11T12:24:30.110Z,1.47
2019-04-11T12:27:18.581Z,1.30
2019-04-11T12:30:10.719Z,1.93
2019-04-11T12:32:44.414Z,1.47
2019-04-11T12:35:19.989Z,1.40
2019-04-11T12:37:54.409Z,1.40
2019-04-11T12:40:48.083Z,1.40
2019-04-11T12:43:16.917Z,1.90
2019-04-11T12:46:03.183Z,1.87
2019-04-11T12:48:36.083Z,1.40
2019-04-11T12:51:38.744Z,1.40
2019-04-11T12:54:21.630Z,1.30
2019-04-11T12:57:07.993Z,1.30
2019-04-11T12:59:36.795Z,1.83
2019-04-11T13:02:35.491Z,1.60
2019-04-11T13:05:05.341Z,1.50
2019-04-11T13:07:55.966Z,1.60
2019-04-11T13:10:30.303Z,1.50
2019-04-11T13:13:24.167Z,1.50
2019-04-11T13:16:15.496Z,1.60
2019-04-11T13:19:03.323Z,1.10
2019-04-11T13:21:48.446Z,1.37
2019-04-11T13:24:51.394Z,1.30
2019-04-11T13:27:21.914Z,1.00
2019-04-11T13:30:09.695Z,1.30
2019-04-11T13:32:52.893Z,1.03
2019-04-11T13:35:43.502Z,1.40
2019-04-11T13:38:34.334Z,1.40
2019-04-11T13:41:27.920Z,1.10
2019-04-11T13:44:16.700Z,1.50
2019-04-11T13:47:13.340Z,1.43
2019-04-11T13:49:47.453Z,1.40
2019-04-11T13:52:35.369Z,1.33
2019-04-11T13:55:24.459Z,1.50
2019-04-11T13:58:12.223Z,1.40
2019-04-11T14:00:54.649Z,1.67
2019-04-11T14:03:46.855Z,1.23
2019-04-11T14:06:27.030Z,1.20
2019-04-11T14:09:23.676Z,1.00
2019-04-11T14:11:56.675Z,1.50
2019-04-11T14:14:35.945Z,1.47
2019-04-11T14:17:12.617Z,1.57
2019-04-11T14:20:11.881Z,1.47
2019-04-11T14:23:14.771Z,1.50
2019-04-11T14:26:13.731Z,2.17
2019-04-11T14:28:48.542Z,1.67
2019-04-11T14:31:30.078Z,1.60
2019-04-11T14:34:07.478Z,1.80
2019-04-11T14:36:48.875Z,2.03
2019-04-11T14:39:18.444Z,1.90
2019-04-11T14:42:11.799Z,1.90
2019-04-11T14:44:38.543Z,1.80
2019-04-11T14:47:39.305Z,1.63
2019-04-11T14:50:08.801Z,1.80
2019-04-11T14:53:04.186Z,1.93
2019-04-11T14:55:41.656Z,1.70
2019-04-11T14:58:27.774Z,1.83
2019-04-11T15:00:56.956Z,1.57
2019-04-11T15:03:44.346Z,1.43
2019-04-11T15:06:31.263Z,1.30
2019-04-11T15:09:24.707Z,1.60
2019-04-11T15:11:56.621Z,1.50
2019-04-11T15:14:47.536Z,1.50
2019-04-11T15:17:29.108Z,1.20
2019-04-11T15:20:12.864Z,1.30
2019-04-11T15:22:54.660Z,1.43
2019-04-11T15:25:38.514Z,1.57
2019-04-11T15:28:34.585Z,1.57
2019-04-11T15:31:11.207Z,1.63
2019-04-11T15:33:55.853Z,1.57
2019-04-11T15:36:27.489Z,1.50
2019-04-11T15:39:21.435Z,1.53
2019-04-11T15:42:00.349Z,1.50
2019-04-11T15:44:47.730Z,1.53
2019-04-11T15:47:19.582Z,1.60
2019-04-11T15:50:11.376Z,1.33
2019-04-11T15:52:45.231Z,1.90
2019-04-11T15:55:31.669Z,1.50
2019-04-11T15:58:00.450Z,1.60
2019-04-11T16:00:48.290Z,1.83
2019-04-11T16:03:24.537Z,1.57
2019-04-11T16:06:26.659Z,1.50
2019-04-11T16:08:58.252Z,1.70
2019-04-11T16:11:52.113Z,1.70
2019-04-11T16:14:45.557Z,1.80
2019-04-11T16:17:36.640Z,1.47
2019-04-11T16:20:26.872Z,1.50
2019-04-11T16:23:14.125Z,1.77
2019-04-11T16:25:51.128Z,1.87
2019-04-11T16:28:38.186Z,2.00
2019-04-11T16:31:09.861Z,2.10
2019-04-11T16:34:01.428Z,1.97
2019-04-11T16:36:49.239Z,1.93
2019-04-11T16:39:50.357Z,1.93
2019-04-11T16:42:21.861Z,1.70
2019-04-11T16:45:19.041Z,1.83
2019-04-11T16:48:15.596Z,1.83
2019-04-11T16:50:44.353Z,1.70
2019-04-11T16:53:13.133Z,1.80
2019-04-11T16:55:44.297Z,1.50
2019-04-11T16:58:16.963Z,1.43
2019-04-11T17:00:43.795Z,1.60
2019-04-11T17:03:12.576Z,1.53
2019-04-11T17:05:44.633Z,1.80
2019-04-11T17:08:27.535Z,1.63
2019-04-11T17:11:04.653Z,1.50
2019-04-11T17:13:33.736Z,1.57
2019-04-11T17:16:03.423Z,2.10
2019-04-11T17:18:34.404Z,1.60
2019-04-11T17:21:02.998Z,1.77
2019-04-11T17:23:31.815Z,1.93
2019-04-11T17:26:00.538Z,2.10
2019-04-11T17:28:31.373Z,1.73
2019-04-11T17:31:02.273Z,1.77
2019-04-11T17:33:30.457Z,1.77
2019-04-11T17:36:02.139Z,2.30
2019-04-11T17:38:29.772Z,2.10
2019-04-11T17:40:58.742Z,2.23
2019-04-11T17:43:27.476Z,1.57
2019-04-11T17:45:57.724Z,1.90
2019-04-11T17:48:26.574Z,1.90
2019-04-11T17:50:55.441Z,1.63
2019-04-11T17:53:24.889Z,1.83
2019-04-11T17:55:54.994Z,2.20
2019-04-11T17:58:27.019Z,1.50
2019-04-11T18:01:00.183Z,2.03
2019-04-11T18:03:28.108Z,1.90
2019-04-11T18:05:56.914Z,2.00
2019-04-11T18:08:25.960Z,1.80
2019-04-11T18:10:56.035Z,1.70
2019-04-11T18:13:25.506Z,1.83
2019-04-11T18:15:56.275Z,2.03
2019-04-11T18:18:29.293Z,2.00
2019-04-11T18:20:57.773Z,1.87
2019-04-11T18:23:26.981Z,1.90
2019-04-11T18:25:56.135Z,2.20
2019-04-11T18:28:25.003Z,1.70
2019-04-11T18:30:54.659Z,1.83
2019-04-11T18:33:23.690Z,2.13
2019-04-11T18:35:52.778Z,1.90
2019-04-11T18:38:21.585Z,2.00
2019-04-11T18:40:50.722Z,1.80
2019-04-11T18:43:25.394Z,1.90
2019-04-11T18:45:53.374Z,1.70
2019-04-11T18:48:22.434Z,1.90
2019-04-11T18:50:53.190Z,2.00
2019-04-11T18:53:21.873Z,2.03
2019-04-11T18:55:53.686Z,2.60
2019-04-11T18:58:22.619Z,2.40
2019-04-11T19:00:51.710Z,2.00
2019-04-11T19:03:20.844Z,2.17
2019-04-11T19:05:49.836Z,2.23
2019-04-11T19:08:19.011Z,2.17
2019-04-11T19:10:48.097Z,2.27
2019-04-11T19:13:18.073Z,2.37
2019-04-11T19:15:46.975Z,2.57
2019-04-11T19:18:16.579Z,2.30
2019-04-11T19:20:50.123Z,2.13
2019-04-11T19:23:16.639Z,2.00
2019-04-11T19:25:45.586Z,1.80
2019-04-11T19:28:14.618Z,1.97
2019-04-11T19:30:43.598Z,2.37
2019-04-11T19:33:12.520Z,2.37
2019-04-11T19:35:42.272Z,2.30
2019-04-11T19:38:24.179Z,2.37
2019-04-11T19:40:55.672Z,2.30
2019-04-11T19:43:27.144Z,1.80
2019-04-11T19:45:58.562Z,2.57
2019-04-11T19:48:26.708Z,2.00
2019-04-11T19:50:58.649Z,2.33
2019-04-11T19:53:26.207Z,2.07
2019-04-11T19:56:16.967Z,2.40
2019-04-11T19:58:45.978Z,2.47
2019-04-11T20:01:15.028Z,2.60
2019-04-11T20:03:43.914Z,2.40
2019-04-11T20:06:13.413Z,2.50
2019-04-11T20:08:42.372Z,2.33
2019-04-11T20:11:11.310Z,2.20
2019-04-11T20:13:40.174Z,2.30
2019-04-11T20:16:12.250Z,1.93
2019-04-11T20:18:50.315Z,2.43
2019-04-11T20:21:10.288Z,2.10
2019-04-11T20:23:41.375Z,2.10
2019-04-11T20:26:09.727Z,2.53
2019-04-11T20:28:39.282Z,2.23
2019-04-11T20:31:08.164Z,2.53
2019-04-11T20:33:37.858Z,1.97
2019-04-11T20:36:08.186Z,2.43
2019-04-11T20:38:37.242Z,2.37
2019-04-11T20:41:06.027Z,2.37
2019-04-11T20:43:34.757Z,2.20
2019-04-11T20:46:03.697Z,2.63
2019-04-11T20:48:35.050Z,2.40
2019-04-11T20:51:03.032Z,2.70
2019-04-11T20:53:31.850Z,2.80
2019-04-11T20:56:00.653Z,2.20
2019-04-11T20:58:29.453Z,2.43
2019-04-11T21:00:58.266Z,2.53
2019-04-11T21:03:29.913Z,1.97
2019-04-11T21:06:01.402Z,2.57
2019-04-11T21:08:27.964Z,2.17
2019-04-11T21:10:56.735Z,2.57
2019-04-11T21:13:25.560Z,2.67
2019-04-11T21:15:54.297Z,2.40
2019-04-11T21:18:25.672Z,2.70
2019-04-11T21:20:55.338Z,2.50
2019-04-11T21:23:24.868Z,2.40
2019-04-11T21:25:54.578Z,2.63
2019-04-11T21:28:23.354Z,2.53
2019-04-11T21:30:52.136Z,2.67
2019-04-11T21:33:20.923Z,2.40
2019-04-11T21:35:49.720Z,3.20
2019-04-11T21:38:18.422Z,2.50
2019-04-11T21:40:47.130Z,2.50
2019-04-11T21:43:15.926Z,2.00
2019-04-11T21:45:44.705Z,2.77
2019-04-11T21:48:13.513Z,3.10
2019-04-11T21:50:42.279Z,2.57
2019-04-11T21:53:14.058Z,1.93
2019-04-11T21:55:41.476Z,2.10
2019-04-11T21:58:10.277Z,2.50
2019-04-11T22:00:42.332Z,1.87
2019-04-11T22:03:11.353Z,2.20
2019-04-11T22:05:40.069Z,2.57
2019-04-11T22:08:08.893Z,2.77
2019-04-11T22:10:40.025Z,2.40
2019-04-11T22:13:10.103Z,2.40
2019-04-11T22:15:42.125Z,2.87
2019-04-11T22:18:08.928Z,2.53
2019-04-11T22:20:37.660Z,2.50
2019-04-11T22:23:06.462Z,2.03
2019-04-11T22:25:35.233Z,2.53
2019-04-11T22:28:04.475Z,2.60
2019-04-11T22:30:33.285Z,3.03
2019-04-11T22:33:06.565Z,2.20
2019-04-11T22:35:35.337Z,2.80
2019-04-11T22:38:04.197Z,2.77
2019-04-11T22:40:32.986Z,2.63
2019-04-11T22:43:01.787Z,2.87
2019-04-11T22:45:30.525Z,2.83
2019-04-11T22:47:59.253Z,2.33
2019-04-11T22:50:27.953Z,2.60
2019-04-11T22:52:56.743Z,2.90
2019-04-11T22:55:25.446Z,2.50
2019-04-11T22:57:54.154Z,2.27
2019-04-11T23:00:22.914Z,2.53
2019-04-11T23:03:04.141Z,2.23
2019-04-11T23:05:32.916Z,2.67
2019-04-11T23:08:02.824Z,2.67
2019-04-11T23:10:31.693Z,2.70
2019-04-11T23:13:00.472Z,2.40
2019-04-11T23:15:29.257Z,3.00
2019-04-11T23:17:57.974Z,2.73
2019-04-11T23:20:26.666Z,2.60
2019-04-11T23:22:55.382Z,2.63
2019-04-11T23:25:24.094Z,2.43
2019-04-11T23:27:52.803Z,3.00
2019-04-11T23:30:21.501Z,2.90
2019-04-11T23:32:51.663Z,2.97
2019-04-11T23:35:21.123Z,2.63
2019-04-11T23:37:53.363Z,2.43
2019-04-11T23:40:22.157Z,2.60
2019-04-11T23:42:50.938Z,3.27
2019-04-11T23:45:23.256Z,2.67
2019-04-11T23:47:54.078Z,2.73
2019-04-11T23:50:25.346Z,2.47
2019-04-11T23:52:57.069Z,2.77
2019-04-11T23:55:23.935Z,3.03
2019-04-11T23:57:52.632Z,2.67
